createdAt,value
2022-07-29T00:08:18.480Z,18
2022-07-29T00:58:29.975Z,17.4
2022-07-29T01:38:38.352Z,17
2022-07-29T01:48:40.989Z,16.9
2022-07-29T01:58:43.332Z,16.8
2022-07-29T02:08:45.554Z,16.7
2022-07-29T02:18:47.807Z,16.6
2022-07-29T02:28:49.614Z,16.5
2022-07-29T02:38:52.546Z,16.4
2022-07-29T02:48:54.431Z,16.3
2022-07-29T03:08:58.765Z,16.2
2022-07-29T03:19:00.743Z,16.2
2022-07-29T03:29:02.912Z,16.1
2022-07-29T03:39:04.947Z,16
2022-07-29T03:49:07.071Z,15.9
2022-07-29T03:59:09.110Z,15.9
2022-07-29T04:09:10.629Z,16
2022-07-29T04:19:12.714Z,16.1
2022-07-29T04:29:14.813Z,16.1
2022-07-29T04:39:20.767Z,16.2
2022-07-29T04:49:19.481Z,16.3
2022-07-29T04:59:21.974Z,16.4
2022-07-29T05:09:23.820Z,16.4
2022-07-29T05:19:26.193Z,16.4
2022-07-29T05:29:43.416Z,16.1
2022-07-29T05:39:36.577Z,15.3
2022-07-29T05:59:35.977Z,14.6
2022-07-29T06:09:37.838Z,14.6
2022-07-29T06:19:39.825Z,14.6
2022-07-29T06:59:47.918Z,14.5
2022-07-29T07:19:52.680Z,15.5
2022-07-29T07:29:54.517Z,15.6
2022-07-29T07:39:57.145Z,15.2
2022-07-29T08:00:01.730Z,15.6
2022-07-29T08:10:04.123Z,15.8
2022-07-29T08:30:08.891Z,17.7
2022-07-29T08:40:10.845Z,17.9
2022-07-29T08:50:12.936Z,17.9
2022-07-29T09:00:15.162Z,18.2
2022-07-29T09:10:17.186Z,18.3
2022-07-29T09:20:19.258Z,18.2
2022-07-29T09:30:25.489Z,17.9
2022-07-29T09:40:23.780Z,17.6
2022-07-29T09:50:26.196Z,17.3
2022-07-29T10:00:28.039Z,16.8
2022-07-29T10:10:30.424Z,17.1
2022-07-29T10:20:32.074Z,17.2
2022-07-29T10:30:34.648Z,17
2022-07-29T10:40:37.231Z,16.8
2022-07-29T10:50:39.156Z,16.9
2022-07-29T11:00:41.172Z,16.9
2022-07-29T11:10:43.262Z,16.8
2022-07-29T11:20:45.149Z,16.9
2022-07-29T11:30:47.733Z,16.5
2022-07-29T11:40:50.278Z,16.7
2022-07-29T11:50:52.383Z,17
2022-07-29T12:00:55.410Z,17.2
2022-07-29T12:10:56.811Z,17.8
2022-07-29T12:20:58.918Z,18.6
2022-07-29T12:31:00.561Z,18.9
2022-07-29T12:41:02.572Z,19
2022-07-29T12:51:05.009Z,19.1
2022-07-29T13:01:07.579Z,19.5
2022-07-29T13:11:09.712Z,19.6
2022-07-29T13:21:12.212Z,20
2022-07-29T13:31:14.061Z,20.9
2022-07-29T13:41:15.959Z,20.8
2022-07-29T13:51:18.539Z,21.3
2022-07-29T14:01:20.914Z,21.4
2022-07-29T14:11:22.597Z,22.2
2022-07-29T14:31:27.000Z,24
2022-07-29T14:41:28.925Z,23
2022-07-29T14:51:32.159Z,22.9
2022-07-29T15:01:33.968Z,23.7
2022-07-29T15:11:36.994Z,24.2
2022-07-29T15:21:41.522Z,23.5
2022-07-29T15:31:39.195Z,23.8
2022-07-29T15:41:41.508Z,23
2022-07-29T15:51:43.185Z,23.3
2022-07-29T16:01:45.612Z,23.3
2022-07-29T16:11:46.850Z,23.3
2022-07-29T16:21:48.489Z,23.3
2022-07-29T16:31:50.533Z,24
2022-07-29T16:41:54.944Z,24.1
2022-07-29T16:51:55.679Z,23.9
2022-07-29T17:01:57.336Z,23.3
2022-07-29T17:11:59.621Z,23.1
2022-07-29T17:22:11.550Z,22.8
2022-07-29T17:32:04.456Z,22.3
2022-07-29T17:42:06.417Z,21.6
2022-07-29T17:52:08.939Z,21.6
2022-07-29T17:54:47.307Z,21.5
2022-07-29T18:02:20.741Z,21.3
2022-07-29T18:12:22.711Z,21.2
2022-07-29T18:22:25.593Z,21.1
2022-07-29T18:32:28.716Z,20.9
2022-07-29T18:42:29.942Z,20.7
2022-07-29T18:52:31.819Z,20.4
2022-07-29T19:02:33.837Z,20.1
2022-07-29T19:12:35.637Z,19.9
2022-07-29T19:22:37.662Z,19.6
2022-07-29T19:32:40.022Z,19.3
2022-07-29T19:42:41.993Z,19
2022-07-29T19:52:44.582Z,18.9
2022-07-29T20:12:49.004Z,18.6
2022-07-29T20:22:51.627Z,18.3
2022-07-29T20:32:53.682Z,18
2022-07-29T20:42:55.913Z,17.9
2022-07-29T20:52:57.957Z,17.7
2022-07-29T21:02:59.806Z,17.5
2022-07-29T21:13:01.549Z,17.4
2022-07-29T21:23:03.526Z,17.3
2022-07-29T21:33:05.597Z,17.2
2022-07-29T21:43:08.215Z,17.1
2022-07-29T21:53:10.310Z,17
2022-07-29T22:03:12.761Z,17.1
2022-07-29T22:23:16.740Z,16.8
2022-07-29T22:33:19.161Z,16.6
2022-07-29T22:43:21.330Z,16.4
2022-07-29T23:03:26.556Z,16.5
2022-07-29T23:13:28.953Z,16.4
2022-07-29T23:23:32.439Z,16.3
2022-07-29T23:33:33.540Z,16.1
2022-07-29T23:43:35.885Z,15.9
2022-07-29T23:53:37.893Z,15.7
